sensor_id;sensor_type;location;lat;lon;timestamp;P1;durP1;ratioP1;P2;durP2;ratioP2
18596;SDS011;9428;50.950;6.912;2023-07-20T00:01:09;4.47;;;2.42;;
18596;SDS011;9428;50.950;6.912;2023-07-20T00:03:57;6.63;;;2.83;;
18596;SDS011;9428;50.950;6.912;2023-07-20T00:06:45;7.15;;;2.75;;
18596;SDS011;9428;50.950;6.912;2023-07-20T00:09:32;3.88;;;2.50;;
18596;SDS011;9428;50.950;6.912;2023-07-20T00:12:19;4.32;;;2.33;;
18596;SDS011;9428;50.950;6.912;2023-07-20T00:15:06;6.05;;;2.40;;
18596;SDS011;9428;50.950;6.912;2023-07-20T00:17:54;6.65;;;3.10;;
18596;SDS011;9428;50.950;6.912;2023-07-20T00:20:42;5.18;;;2.80;;
18596;SDS011;9428;50.950;6.912;2023-07-20T00:23:30;5.57;;;2.83;;
18596;SDS011;9428;50.950;6.912;2023-07-20T00:26:17;4.47;;;2.30;;
18596;SDS011;9428;50.950;6.912;2023-07-20T00:29:04;6.15;;;2.70;;
18596;SDS011;9428;50.950;6.912;2023-07-20T00:31:51;3.50;;;2.17;;
18596;SDS011;9428;50.950;6.912;2023-07-20T00:34:38;4.82;;;2.65;;
18596;SDS011;9428;50.950;6.912;2023-07-20T00:37:27;4.88;;;2.75;;
18596;SDS011;9428;50.950;6.912;2023-07-20T00:40:14;6.05;;;2.88;;
18596;SDS011;9428;50.950;6.912;2023-07-20T00:43:03;4.82;;;2.40;;
18596;SDS011;9428;50.950;6.912;2023-07-20T00:45:50;7.53;;;2.70;;
18596;SDS011;9428;50.950;6.912;2023-07-20T00:48:37;5.03;;;2.83;;
18596;SDS011;9428;50.950;6.912;2023-07-20T00:51:26;5.88;;;2.83;;
18596;SDS011;9428;50.950;6.912;2023-07-20T00:54:15;4.63;;;2.90;;
18596;SDS011;9428;50.950;6.912;2023-07-20T00:57:03;4.30;;;2.83;;
18596;SDS011;9428;50.950;6.912;2023-07-20T00:59:53;5.45;;;3.25;;
18596;SDS011;9428;50.950;6.912;2023-07-20T01:02:40;4.30;;;2.78;;
18596;SDS011;9428;50.950;6.912;2023-07-20T01:05:35;5.50;;;3.03;;
18596;SDS011;9428;50.950;6.912;2023-07-20T01:08:30;7.18;;;3.03;;
18596;SDS011;9428;50.950;6.912;2023-07-20T01:11:27;9.05;;;3.13;;
18596;SDS011;9428;50.950;6.912;2023-07-20T01:14:22;5.25;;;2.55;;
18596;SDS011;9428;50.950;6.912;2023-07-20T01:17:10;7.45;;;2.65;;
18596;SDS011;9428;50.950;6.912;2023-07-20T01:19:58;8.88;;;2.70;;
18596;SDS011;9428;50.950;6.912;2023-07-20T01:23:05;7.43;;;2.95;;
18596;SDS011;9428;50.950;6.912;2023-07-20T01:26:17;5.43;;;2.67;;
18596;SDS011;9428;50.950;6.912;2023-07-20T01:29:29;5.60;;;2.70;;
18596;SDS011;9428;50.950;6.912;2023-07-20T01:32:31;8.77;;;2.80;;
18596;SDS011;9428;50.950;6.912;2023-07-20T01:35:20;2.78;;;2.15;;
18596;SDS011;9428;50.950;6.912;2023-07-20T01:38:10;5.38;;;2.83;;
18596;SDS011;9428;50.950;6.912;2023-07-20T01:40:58;5.60;;;2.28;;
18596;SDS011;9428;50.950;6.912;2023-07-20T01:43:46;5.03;;;2.53;;
18596;SDS011;9428;50.950;6.912;2023-07-20T01:46:33;5.40;;;2.13;;
18596;SDS011;9428;50.950;6.912;2023-07-20T01:49:22;5.43;;;2.53;;
18596;SDS011;9428;50.950;6.912;2023-07-20T01:52:09;3.13;;;2.60;;
18596;SDS011;9428;50.950;6.912;2023-07-20T01:54:56;5.70;;;2.80;;
18596;SDS011;9428;50.950;6.912;2023-07-20T01:57:43;2.70;;;2.22;;
18596;SDS011;9428;50.950;6.912;2023-07-20T02:00:30;4.25;;;2.50;;
18596;SDS011;9428;50.950;6.912;2023-07-20T02:03:17;5.88;;;2.95;;
18596;SDS011;9428;50.950;6.912;2023-07-20T02:06:08;7.07;;;2.75;;
18596;SDS011;9428;50.950;6.912;2023-07-20T02:08:55;3.53;;;2.40;;
18596;SDS011;9428;50.950;6.912;2023-07-20T02:11:43;4.20;;;2.78;;
18596;SDS011;9428;50.950;6.912;2023-07-20T02:14:30;5.22;;;2.90;;
18596;SDS011;9428;50.950;6.912;2023-07-20T02:17:17;4.75;;;2.67;;
18596;SDS011;9428;50.950;6.912;2023-07-20T02:20:04;7.68;;;3.20;;
18596;SDS011;9428;50.950;6.912;2023-07-20T02:22:55;6.63;;;2.63;;
18596;SDS011;9428;50.950;6.912;2023-07-20T02:25:42;4.78;;;2.85;;
18596;SDS011;9428;50.950;6.912;2023-07-20T02:28:30;6.53;;;3.25;;
18596;SDS011;9428;50.950;6.912;2023-07-20T02:31:17;5.57;;;3.10;;
18596;SDS011;9428;50.950;6.912;2023-07-20T02:34:04;8.32;;;3.10;;
18596;SDS011;9428;50.950;6.912;2023-07-20T02:36:51;4.45;;;2.63;;
18596;SDS011;9428;50.950;6.912;2023-07-20T02:39:42;5.65;;;2.60;;
18596;SDS011;9428;50.950;6.912;2023-07-20T02:42:30;6.30;;;3.40;;
18596;SDS011;9428;50.950;6.912;2023-07-20T02:45:17;5.07;;;3.22;;
18596;SDS011;9428;50.950;6.912;2023-07-20T02:48:04;7.05;;;3.50;;
18596;SDS011;9428;50.950;6.912;2023-07-20T02:50:53;5.82;;;3.08;;
18596;SDS011;9428;50.950;6.912;2023-07-20T02:53:40;4.95;;;2.45;;
18596;SDS011;9428;50.950;6.912;2023-07-20T02:56:29;7.25;;;3.17;;
18596;SDS011;9428;50.950;6.912;2023-07-20T02:59:16;6.20;;;3.08;;
18596;SDS011;9428;50.950;6.912;2023-07-20T03:02:04;5.97;;;3.55;;
18596;SDS011;9428;50.950;6.912;2023-07-20T03:04:55;4.18;;;2.90;;
18596;SDS011;9428;50.950;6.912;2023-07-20T03:07:42;4.90;;;2.95;;
18596;SDS011;9428;50.950;6.912;2023-07-20T03:10:30;5.32;;;3.15;;
18596;SDS011;9428;50.950;6.912;2023-07-20T03:13:18;5.13;;;3.10;;
18596;SDS011;9428;50.950;6.912;2023-07-20T03:16:05;5.20;;;2.90;;
18596;SDS011;9428;50.950;6.912;2023-07-20T03:18:56;7.75;;;3.63;;
18596;SDS011;9428;50.950;6.912;2023-07-20T03:21:43;6.80;;;3.63;;
18596;SDS011;9428;50.950;6.912;2023-07-20T03:24:31;4.53;;;3.08;;
18596;SDS011;9428;50.950;6.912;2023-07-20T03:27:18;7.90;;;3.50;;
18596;SDS011;9428;50.950;6.912;2023-07-20T03:30:07;8.05;;;3.22;;
18596;SDS011;9428;50.950;6.912;2023-07-20T03:32:56;8.32;;;2.92;;
18596;SDS011;9428;50.950;6.912;2023-07-20T03:35:43;6.57;;;3.20;;
18596;SDS011;9428;50.950;6.912;2023-07-20T03:38:30;9.02;;;3.00;;
18596;SDS011;9428;50.950;6.912;2023-07-20T03:41:18;5.03;;;2.97;;
18596;SDS011;9428;50.950;6.912;2023-07-20T03:44:07;5.15;;;2.70;;
18596;SDS011;9428;50.950;6.912;2023-07-20T03:46:55;3.90;;;2.45;;
18596;SDS011;9428;50.950;6.912;2023-07-20T03:49:43;3.50;;;2.80;;
18596;SDS011;9428;50.950;6.912;2023-07-20T03:52:30;4.70;;;2.50;;
18596;SDS011;9428;50.950;6.912;2023-07-20T03:55:17;4.25;;;3.33;;
18596;SDS011;9428;50.950;6.912;2023-07-20T03:58:04;8.27;;;3.03;;
18596;SDS011;9428;50.950;6.912;2023-07-20T04:00:52;6.07;;;2.63;;
18596;SDS011;9428;50.950;6.912;2023-07-20T04:03:40;6.65;;;2.85;;
18596;SDS011;9428;50.950;6.912;2023-07-20T04:06:28;6.38;;;2.90;;
18596;SDS011;9428;50.950;6.912;2023-07-20T04:09:15;5.32;;;3.00;;
18596;SDS011;9428;50.950;6.912;2023-07-20T04:12:02;8.93;;;3.13;;
18596;SDS011;9428;50.950;6.912;2023-07-20T04:14:50;6.75;;;3.00;;
18596;SDS011;9428;50.950;6.912;2023-07-20T04:17:37;6.88;;;3.17;;
18596;SDS011;9428;50.950;6.912;2023-07-20T04:20:26;7.50;;;2.95;;
18596;SDS011;9428;50.950;6.912;2023-07-20T04:23:13;8.30;;;2.97;;
18596;SDS011;9428;50.950;6.912;2023-07-20T04:26:00;4.47;;;2.75;;
18596;SDS011;9428;50.950;6.912;2023-07-20T04:28:48;6.53;;;2.67;;
18596;SDS011;9428;50.950;6.912;2023-07-20T04:31:36;8.88;;;2.55;;
18596;SDS011;9428;50.950;6.912;2023-07-20T04:34:23;9.60;;;2.90;;
18596;SDS011;9428;50.950;6.912;2023-07-20T04:37:12;4.65;;;2.80;;
18596;SDS011;9428;50.950;6.912;2023-07-20T04:39:59;7.07;;;3.00;;
18596;SDS011;9428;50.950;6.912;2023-07-20T04:42:46;8.90;;;3.10;;
18596;SDS011;9428;50.950;6.912;2023-07-20T04:45:33;6.13;;;3.28;;
18596;SDS011;9428;50.950;6.912;2023-07-20T04:48:20;10.65;;;2.83;;
18596;SDS011;9428;50.950;6.912;2023-07-20T04:51:08;5.97;;;3.17;;
18596;SDS011;9428;50.950;6.912;2023-07-20T04:53:57;8.52;;;3.38;;
18596;SDS011;9428;50.950;6.912;2023-07-20T04:56:44;7.55;;;3.47;;
18596;SDS011;9428;50.950;6.912;2023-07-20T04:59:32;6.07;;;3.30;;
18596;SDS011;9428;50.950;6.912;2023-07-20T05:02:19;8.75;;;3.60;;
18596;SDS011;9428;50.950;6.912;2023-07-20T05:05:07;6.47;;;3.50;;
18596;SDS011;9428;50.950;6.912;2023-07-20T05:07:54;9.18;;;4.25;;
18596;SDS011;9428;50.950;6.912;2023-07-20T05:10:43;8.25;;;4.03;;
18596;SDS011;9428;50.950;6.912;2023-07-20T05:13:30;10.60;;;3.92;;
18596;SDS011;9428;50.950;6.912;2023-07-20T05:16:17;9.75;;;4.07;;
18596;SDS011;9428;50.950;6.912;2023-07-20T05:19:04;9.43;;;4.13;;
18596;SDS011;9428;50.950;6.912;2023-07-20T05:21:52;11.15;;;4.20;;
18596;SDS011;9428;50.950;6.912;2023-07-20T05:24:39;8.27;;;3.70;;
18596;SDS011;9428;50.950;6.912;2023-07-20T05:27:27;10.07;;;5.25;;
18596;SDS011;9428;50.950;6.912;2023-07-20T05:30:15;7.85;;;4.07;;
18596;SDS011;9428;50.950;6.912;2023-07-20T05:33:02;11.20;;;4.32;;
18596;SDS011;9428;50.950;6.912;2023-07-20T05:35:49;7.82;;;4.68;;
18596;SDS011;9428;50.950;6.912;2023-07-20T05:38:36;9.80;;;4.28;;
18596;SDS011;9428;50.950;6.912;2023-07-20T05:41:24;9.43;;;4.43;;
18596;SDS011;9428;50.950;6.912;2023-07-20T05:44:12;11.38;;;4.63;;
18596;SDS011;9428;50.950;6.912;2023-07-20T05:46:59;8.85;;;5.10;;
18596;SDS011;9428;50.950;6.912;2023-07-20T05:49:48;9.40;;;4.90;;
18596;SDS011;9428;50.950;6.912;2023-07-20T05:52:35;12.40;;;5.57;;
18596;SDS011;9428;50.950;6.912;2023-07-20T05:55:24;10.18;;;5.72;;
18596;SDS011;9428;50.950;6.912;2023-07-20T05:58:11;11.15;;;5.95;;
18596;SDS011;9428;50.950;6.912;2023-07-20T06:01:00;10.55;;;6.07;;
18596;SDS011;9428;50.950;6.912;2023-07-20T06:03:47;8.70;;;6.07;;
18596;SDS011;9428;50.950;6.912;2023-07-20T06:06:34;11.02;;;6.18;;
18596;SDS011;9428;50.950;6.912;2023-07-20T06:09:21;11.05;;;7.38;;
18596;SDS011;9428;50.950;6.912;2023-07-20T06:12:09;9.23;;;5.65;;
18596;SDS011;9428;50.950;6.912;2023-07-20T06:14:56;14.10;;;8.05;;
18596;SDS011;9428;50.950;6.912;2023-07-20T06:17:45;12.02;;;7.05;;
18596;SDS011;9428;50.950;6.912;2023-07-20T06:20:32;13.18;;;6.10;;
18596;SDS011;9428;50.950;6.912;2023-07-20T06:23:19;10.52;;;7.05;;
18596;SDS011;9428;50.950;6.912;2023-07-20T06:26:06;13.20;;;7.60;;
18596;SDS011;9428;50.950;6.912;2023-07-20T06:28:53;12.80;;;6.72;;
18596;SDS011;9428;50.950;6.912;2023-07-20T06:31:41;14.82;;;6.78;;
18596;SDS011;9428;50.950;6.912;2023-07-20T06:34:29;12.60;;;7.28;;
18596;SDS011;9428;50.950;6.912;2023-07-20T06:37:22;13.30;;;6.93;;
18596;SDS011;9428;50.950;6.912;2023-07-20T06:40:09;12.48;;;7.18;;
18596;SDS011;9428;50.950;6.912;2023-07-20T06:42:57;14.48;;;7.78;;
18596;SDS011;9428;50.950;6.912;2023-07-20T06:45:44;13.23;;;7.47;;
18596;SDS011;9428;50.950;6.912;2023-07-20T06:48:37;9.93;;;6.82;;
18596;SDS011;9428;50.950;6.912;2023-07-20T06:51:25;12.63;;;7.15;;
18596;SDS011;9428;50.950;6.912;2023-07-20T06:54:13;12.55;;;7.45;;
18596;SDS011;9428;50.950;6.912;2023-07-20T06:57:01;11.70;;;6.93;;
18596;SDS011;9428;50.950;6.912;2023-07-20T06:59:48;11.25;;;6.40;;
18596;SDS011;9428;50.950;6.912;2023-07-20T07:02:36;8.43;;;6.65;;
18596;SDS011;9428;50.950;6.912;2023-07-20T07:05:23;9.93;;;5.53;;
18596;SDS011;9428;50.950;6.912;2023-07-20T07:08:11;8.38;;;5.88;;
18596;SDS011;9428;50.950;6.912;2023-07-20T07:10:59;8.13;;;5.75;;
18596;SDS011;9428;50.950;6.912;2023-07-20T07:13:46;9.73;;;6.13;;
18596;SDS011;9428;50.950;6.912;2023-07-20T07:16:36;9.02;;;6.68;;
18596;SDS011;9428;50.950;6.912;2023-07-20T07:19:23;10.52;;;6.68;;
18596;SDS011;9428;50.950;6.912;2023-07-20T07:22:10;9.80;;;6.90;;
18596;SDS011;9428;50.950;6.912;2023-07-20T07:25:00;11.23;;;6.72;;
18596;SDS011;9428;50.950;6.912;2023-07-20T07:27:48;11.73;;;6.13;;
18596;SDS011;9428;50.950;6.912;2023-07-20T07:30:35;8.55;;;6.18;;
18596;SDS011;9428;50.950;6.912;2023-07-20T07:33:22;12.55;;;7.18;;
18596;SDS011;9428;50.950;6.912;2023-07-20T07:36:10;13.40;;;6.88;;
18596;SDS011;9428;50.950;6.912;2023-07-20T07:38:57;15.90;;;6.40;;
18596;SDS011;9428;50.950;6.912;2023-07-20T07:41:46;16.58;;;6.55;;
18596;SDS011;9428;50.950;6.912;2023-07-20T07:44:33;12.02;;;6.00;;
18596;SDS011;9428;50.950;6.912;2023-07-20T07:47:20;7.93;;;5.63;;
18596;SDS011;9428;50.950;6.912;2023-07-20T07:50:08;9.80;;;5.13;;
18596;SDS011;9428;50.950;6.912;2023-07-20T07:52:56;6.45;;;4.55;;
18596;SDS011;9428;50.950;6.912;2023-07-20T07:55:43;9.05;;;5.78;;
18596;SDS011;9428;50.950;6.912;2023-07-20T07:58:32;8.93;;;5.68;;
18596;SDS011;9428;50.950;6.912;2023-07-20T08:01:19;7.47;;;4.85;;
18596;SDS011;9428;50.950;6.912;2023-07-20T08:04:07;8.32;;;4.35;;
18596;SDS011;9428;50.950;6.912;2023-07-20T08:06:54;5.78;;;3.78;;
18596;SDS011;9428;50.950;6.912;2023-07-20T08:09:42;5.13;;;3.67;;
18596;SDS011;9428;50.950;6.912;2023-07-20T08:12:29;10.25;;;4.60;;
18596;SDS011;9428;50.950;6.912;2023-07-20T08:15:18;5.25;;;3.92;;
18596;SDS011;9428;50.950;6.912;2023-07-20T08:18:07;5.28;;;3.72;;
18596;SDS011;9428;50.950;6.912;2023-07-20T08:20:55;4.82;;;3.22;;
18596;SDS011;9428;50.950;6.912;2023-07-20T08:23:42;7.85;;;4.22;;
18596;SDS011;9428;50.950;6.912;2023-07-20T08:26:29;5.28;;;3.65;;
18596;SDS011;9428;50.950;6.912;2023-07-20T08:29:16;6.47;;;2.90;;
18596;SDS011;9428;50.950;6.912;2023-07-20T08:32:05;6.43;;;3.20;;
18596;SDS011;9428;50.950;6.912;2023-07-20T08:34:53;6.35;;;3.17;;
18596;SDS011;9428;50.950;6.912;2023-07-20T08:37:40;4.80;;;2.80;;
18596;SDS011;9428;50.950;6.912;2023-07-20T08:40:27;3.50;;;2.70;;
18596;SDS011;9428;50.950;6.912;2023-07-20T08:43:15;3.78;;;2.72;;
18596;SDS011;9428;50.950;6.912;2023-07-20T08:46:03;2.83;;;2.63;;
18596;SDS011;9428;50.950;6.912;2023-07-20T08:48:53;9.43;;;2.67;;
18596;SDS011;9428;50.950;6.912;2023-07-20T08:51:41;3.85;;;2.20;;
18596;SDS011;9428;50.950;6.912;2023-07-20T08:54:30;4.88;;;2.55;;
18596;SDS011;9428;50.950;6.912;2023-07-20T08:57:19;4.43;;;2.38;;
18596;SDS011;9428;50.950;6.912;2023-07-20T09:00:08;3.40;;;2.45;;
18596;SDS011;9428;50.950;6.912;2023-07-20T09:02:58;6.32;;;2.55;;
18596;SDS011;9428;50.950;6.912;2023-07-20T09:05:49;3.40;;;2.10;;
18596;SDS011;9428;50.950;6.912;2023-07-20T09:08:37;5.40;;;1.90;;
18596;SDS011;9428;50.950;6.912;2023-07-20T09:11:25;3.22;;;2.40;;
18596;SDS011;9428;50.950;6.912;2023-07-20T09:14:12;4.43;;;2.47;;
18596;SDS011;9428;50.950;6.912;2023-07-20T09:16:59;6.30;;;2.60;;
18596;SDS011;9428;50.950;6.912;2023-07-20T09:19:46;6.60;;;3.17;;
18596;SDS011;9428;50.950;6.912;2023-07-20T09:22:35;2.63;;;1.88;;
18596;SDS011;9428;50.950;6.912;2023-07-20T09:25:25;4.82;;;2.17;;
18596;SDS011;9428;50.950;6.912;2023-07-20T09:28:14;3.17;;;2.10;;
18596;SDS011;9428;50.950;6.912;2023-07-20T09:31:01;4.85;;;2.20;;
18596;SDS011;9428;50.950;6.912;2023-07-20T09:34:03;2.55;;;2.08;;
18596;SDS011;9428;50.950;6.912;2023-07-20T09:36:51;3.15;;;1.90;;
18596;SDS011;9428;50.950;6.912;2023-07-20T09:39:43;7.22;;;2.25;;
18596;SDS011;9428;50.950;6.912;2023-07-20T09:42:31;6.53;;;2.30;;
18596;SDS011;9428;50.950;6.912;2023-07-20T09:45:18;3.92;;;1.88;;
18596;SDS011;9428;50.950;6.912;2023-07-20T09:48:06;4.50;;;1.90;;
18596;SDS011;9428;50.950;6.912;2023-07-20T09:50:55;7.50;;;1.98;;
18596;SDS011;9428;50.950;6.912;2023-07-20T09:53:43;8.50;;;2.30;;
18596;SDS011;9428;50.950;6.912;2023-07-20T09:56:33;2.92;;;1.65;;
18596;SDS011;9428;50.950;6.912;2023-07-20T09:59:21;2.75;;;1.75;;
18596;SDS011;9428;50.950;6.912;2023-07-20T10:02:10;3.15;;;1.60;;
18596;SDS011;9428;50.950;6.912;2023-07-20T10:05:06;3.20;;;1.80;;
18596;SDS011;9428;50.950;6.912;2023-07-20T10:07:55;3.92;;;1.90;;
18596;SDS011;9428;50.950;6.912;2023-07-20T10:10:44;3.08;;;1.80;;
18596;SDS011;9428;50.950;6.912;2023-07-20T10:13:36;3.17;;;1.80;;
18596;SDS011;9428;50.950;6.912;2023-07-20T10:16:26;2.95;;;1.48;;
18596;SDS011;9428;50.950;6.912;2023-07-20T10:19:17;7.45;;;2.38;;
18596;SDS011;9428;50.950;6.912;2023-07-20T10:22:12;10.55;;;3.33;;
18596;SDS011;9428;50.950;6.912;2023-07-20T10:25:01;3.47;;;1.98;;
18596;SDS011;9428;50.950;6.912;2023-07-20T10:27:50;4.40;;;1.27;;
18596;SDS011;9428;50.950;6.912;2023-07-20T10:30:39;5.60;;;2.40;;
18596;SDS011;9428;50.950;6.912;2023-07-20T10:33:28;3.85;;;2.90;;
18596;SDS011;9428;50.950;6.912;2023-07-20T10:36:15;3.53;;;1.70;;
18596;SDS011;9428;50.950;6.912;2023-07-20T10:39:13;2.72;;;1.60;;
18596;SDS011;9428;50.950;6.912;2023-07-20T10:42:10;2.17;;;1.60;;
18596;SDS011;9428;50.950;6.912;2023-07-20T10:44:57;2.65;;;1.58;;
18596;SDS011;9428;50.950;6.912;2023-07-20T10:47:46;3.55;;;1.40;;
18596;SDS011;9428;50.950;6.912;2023-07-20T10:50:33;1.77;;;1.30;;
18596;SDS011;9428;50.950;6.912;2023-07-20T10:53:21;2.13;;;1.23;;
18596;SDS011;9428;50.950;6.912;2023-07-20T10:56:08;3.03;;;1.83;;
18596;SDS011;9428;50.950;6.912;2023-07-20T10:58:59;1.40;;;1.15;;
18596;SDS011;9428;50.950;6.912;2023-07-20T11:01:47;1.30;;;1.17;;
18596;SDS011;9428;50.950;6.912;2023-07-20T11:04:40;3.90;;;1.50;;
18596;SDS011;9428;50.950;6.912;2023-07-20T11:07:36;1.65;;;1.20;;
18596;SDS011;9428;50.950;6.912;2023-07-20T11:10:24;2.33;;;1.13;;
18596;SDS011;9428;50.950;6.912;2023-07-20T11:13:18;1.48;;;1.17;;
18596;SDS011;9428;50.950;6.912;2023-07-20T11:16:06;2.83;;;1.60;;
18596;SDS011;9428;50.950;6.912;2023-07-20T11:18:53;4.90;;;1.80;;
18596;SDS011;9428;50.950;6.912;2023-07-20T11:21:44;2.72;;;1.50;;
18596;SDS011;9428;50.950;6.912;2023-07-20T11:24:32;2.75;;;1.50;;
18596;SDS011;9428;50.950;6.912;2023-07-20T11:27:19;2.70;;;1.33;;
18596;SDS011;9428;50.950;6.912;2023-07-20T11:30:15;3.50;;;1.45;;
18596;SDS011;9428;50.950;6.912;2023-07-20T11:33:02;5.57;;;2.20;;
18596;SDS011;9428;50.950;6.912;2023-07-20T11:35:50;2.75;;;1.33;;
18596;SDS011;9428;50.950;6.912;2023-07-20T11:38:40;2.20;;;1.35;;
18596;SDS011;9428;50.950;6.912;2023-07-20T11:41:29;2.45;;;1.25;;
18596;SDS011;9428;50.950;6.912;2023-07-20T11:44:16;2.95;;;1.58;;
18596;SDS011;9428;50.950;6.912;2023-07-20T11:47:04;1.88;;;1.20;;
18596;SDS011;9428;50.950;6.912;2023-07-20T11:49:53;2.47;;;1.20;;
18596;SDS011;9428;50.950;6.912;2023-07-20T11:52:40;1.73;;;1.30;;
18596;SDS011;9428;50.950;6.912;2023-07-20T11:55:29;3.35;;;1.55;;
18596;SDS011;9428;50.950;6.912;2023-07-20T11:58:16;3.42;;;1.65;;
18596;SDS011;9428;50.950;6.912;2023-07-20T12:01:04;5.00;;;2.78;;
18596;SDS011;9428;50.950;6.912;2023-07-20T12:03:52;1.30;;;1.20;;
18596;SDS011;9428;50.950;6.912;2023-07-20T12:06:39;1.75;;;1.27;;
18596;SDS011;9428;50.950;6.912;2023-07-20T12:09:26;3.67;;;1.60;;
18596;SDS011;9428;50.950;6.912;2023-07-20T12:12:15;3.97;;;1.65;;
18596;SDS011;9428;50.950;6.912;2023-07-20T12:15:12;2.15;;;1.25;;
18596;SDS011;9428;50.950;6.912;2023-07-20T12:18:03;1.17;;;1.00;;
18596;SDS011;9428;50.950;6.912;2023-07-20T12:20:58;2.58;;;1.40;;
18596;SDS011;9428;50.950;6.912;2023-07-20T12:23:46;7.13;;;1.48;;
18596;SDS011;9428;50.950;6.912;2023-07-20T12:26:33;2.83;;;1.42;;
18596;SDS011;9428;50.950;6.912;2023-07-20T12:29:22;2.10;;;1.27;;
18596;SDS011;9428;50.950;6.912;2023-07-20T12:32:09;2.35;;;1.20;;
18596;SDS011;9428;50.950;6.912;2023-07-20T12:34:56;3.90;;;2.10;;
18596;SDS011;9428;50.950;6.912;2023-07-20T12:37:45;4.85;;;1.45;;
18596;SDS011;9428;50.950;6.912;2023-07-20T12:40:34;2.00;;;1.20;;
18596;SDS011;9428;50.950;6.912;2023-07-20T12:43:22;1.95;;;1.38;;
18596;SDS011;9428;50.950;6.912;2023-07-20T12:46:11;4.13;;;1.35;;
18596;SDS011;9428;50.950;6.912;2023-07-20T12:48:59;1.55;;;1.30;;
18596;SDS011;9428;50.950;6.912;2023-07-20T12:51:46;1.58;;;1.30;;
18596;SDS011;9428;50.950;6.912;2023-07-20T12:54:33;4.68;;;1.38;;
18596;SDS011;9428;50.950;6.912;2023-07-20T12:57:21;4.28;;;1.10;;
18596;SDS011;9428;50.950;6.912;2023-07-20T13:00:09;2.65;;;1.00;;
18596;SDS011;9428;50.950;6.912;2023-07-20T13:02:58;2.17;;;0.98;;
18596;SDS011;9428;50.950;6.912;2023-07-20T13:05:50;2.92;;;1.27;;
18596;SDS011;9428;50.950;6.912;2023-07-20T13:08:37;2.75;;;1.70;;
18596;SDS011;9428;50.950;6.912;2023-07-20T13:11:24;3.00;;;1.27;;
18596;SDS011;9428;50.950;6.912;2023-07-20T13:14:11;1.63;;;1.13;;
18596;SDS011;9428;50.950;6.912;2023-07-20T13:16:59;2.13;;;1.20;;
18596;SDS011;9428;50.950;6.912;2023-07-20T13:19:47;3.72;;;1.67;;
18596;SDS011;9428;50.950;6.912;2023-07-20T13:22:35;1.50;;;1.20;;
18596;SDS011;9428;50.950;6.912;2023-07-20T13:25:22;3.88;;;1.55;;
18596;SDS011;9428;50.950;6.912;2023-07-20T13:28:10;3.80;;;1.42;;
18596;SDS011;9428;50.950;6.912;2023-07-20T13:30:58;2.55;;;1.42;;
18596;SDS011;9428;50.950;6.912;2023-07-20T13:33:45;10.60;;;1.38;;
18596;SDS011;9428;50.950;6.912;2023-07-20T13:36:33;1.45;;;1.23;;
18596;SDS011;9428;50.950;6.912;2023-07-20T13:39:20;7.00;;;1.55;;
18596;SDS011;9428;50.950;6.912;2023-07-20T13:42:09;4.03;;;1.38;;
18596;SDS011;9428;50.950;6.912;2023-07-20T13:44:58;3.78;;;1.40;;
18596;SDS011;9428;50.950;6.912;2023-07-20T13:47:45;4.47;;;1.33;;
18596;SDS011;9428;50.950;6.912;2023-07-20T13:50:32;2.22;;;1.33;;
18596;SDS011;9428;50.950;6.912;2023-07-20T13:53:21;1.98;;;1.08;;
18596;SDS011;9428;50.950;6.912;2023-07-20T13:56:08;2.38;;;1.42;;
18596;SDS011;9428;50.950;6.912;2023-07-20T13:58:55;2.20;;;1.17;;
18596;SDS011;9428;50.950;6.912;2023-07-20T14:01:42;1.98;;;1.23;;
18596;SDS011;9428;50.950;6.912;2023-07-20T14:04:29;1.63;;;1.17;;
18596;SDS011;9428;50.950;6.912;2023-07-20T14:07:17;1.80;;;1.55;;
18596;SDS011;9428;50.950;6.912;2023-07-20T14:10:06;4.85;;;1.42;;
18596;SDS011;9428;50.950;6.912;2023-07-20T14:12:53;1.95;;;1.25;;
18596;SDS011;9428;50.950;6.912;2023-07-20T14:15:40;1.88;;;1.27;;
18596;SDS011;9428;50.950;6.912;2023-07-20T14:18:28;1.77;;;1.40;;
18596;SDS011;9428;50.950;6.912;2023-07-20T14:21:15;4.80;;;1.33;;
18596;SDS011;9428;50.950;6.912;2023-07-20T14:24:03;3.17;;;1.17;;
18596;SDS011;9428;50.950;6.912;2023-07-20T14:26:52;3.17;;;1.80;;
18596;SDS011;9428;50.950;6.912;2023-07-20T14:29:40;1.85;;;1.27;;
18596;SDS011;9428;50.950;6.912;2023-07-20T14:32:27;2.53;;;1.60;;
18596;SDS011;9428;50.950;6.912;2023-07-20T14:35:14;2.72;;;1.48;;
18596;SDS011;9428;50.950;6.912;2023-07-20T14:38:01;3.10;;;1.50;;
18596;SDS011;9428;50.950;6.912;2023-07-20T14:40:48;1.55;;;1.08;;
18596;SDS011;9428;50.950;6.912;2023-07-20T14:43:37;2.38;;;1.05;;
18596;SDS011;9428;50.950;6.912;2023-07-20T14:46:25;1.30;;;1.15;;
18596;SDS011;9428;50.950;6.912;2023-07-20T14:49:12;2.65;;;1.40;;
18596;SDS011;9428;50.950;6.912;2023-07-20T14:51:59;3.70;;;1.88;;
18596;SDS011;9428;50.950;6.912;2023-07-20T14:54:46;5.72;;;1.60;;
18596;SDS011;9428;50.950;6.912;2023-07-20T14:57:34;3.03;;;2.03;;
18596;SDS011;9428;50.950;6.912;2023-07-20T15:00:22;1.90;;;1.55;;
18596;SDS011;9428;50.950;6.912;2023-07-20T15:03:10;1.65;;;1.10;;
18596;SDS011;9428;50.950;6.912;2023-07-20T15:05:57;3.70;;;2.42;;
18596;SDS011;9428;50.950;6.912;2023-07-20T15:08:44;1.20;;;1.10;;
18596;SDS011;9428;50.950;6.912;2023-07-20T15:11:32;8.30;;;1.35;;
18596;SDS011;9428;50.950;6.912;2023-07-20T15:14:19;1.20;;;1.10;;
18596;SDS011;9428;50.950;6.912;2023-07-20T15:17:08;3.03;;;1.35;;
18596;SDS011;9428;50.950;6.912;2023-07-20T15:19:55;2.83;;;1.50;;
18596;SDS011;9428;50.950;6.912;2023-07-20T15:22:43;2.60;;;1.17;;
18596;SDS011;9428;50.950;6.912;2023-07-20T15:25:30;3.13;;;1.15;;
18596;SDS011;9428;50.950;6.912;2023-07-20T15:28:17;1.67;;;1.20;;
18596;SDS011;9428;50.950;6.912;2023-07-20T15:31:04;2.58;;;1.20;;
18596;SDS011;9428;50.950;6.912;2023-07-20T15:33:53;1.45;;;0.98;;
18596;SDS011;9428;50.950;6.912;2023-07-20T15:36:40;3.13;;;1.60;;
18596;SDS011;9428;50.950;6.912;2023-07-20T15:39:27;3.95;;;1.45;;
18596;SDS011;9428;50.950;6.912;2023-07-20T15:42:15;3.25;;;1.20;;
18596;SDS011;9428;50.950;6.912;2023-07-20T15:45:02;3.50;;;1.40;;
18596;SDS011;9428;50.950;6.912;2023-07-20T15:47:50;2.45;;;1.20;;
18596;SDS011;9428;50.950;6.912;2023-07-20T15:50:38;2.75;;;1.40;;
18596;SDS011;9428;50.950;6.912;2023-07-20T15:53:26;1.95;;;1.20;;
18596;SDS011;9428;50.950;6.912;2023-07-20T15:56:13;4.40;;;1.58;;
18596;SDS011;9428;50.950;6.912;2023-07-20T15:59:00;1.20;;;1.10;;
18596;SDS011;9428;50.950;6.912;2023-07-20T16:01:47;2.05;;;1.33;;
18596;SDS011;9428;50.950;6.912;2023-07-20T16:04:35;1.77;;;1.00;;
18596;SDS011;9428;50.950;6.912;2023-07-20T16:07:23;3.67;;;1.20;;
18596;SDS011;9428;50.950;6.912;2023-07-20T16:10:10;1.70;;;1.05;;
18596;SDS011;9428;50.950;6.912;2023-07-20T16:12:58;3.03;;;1.15;;
18596;SDS011;9428;50.950;6.912;2023-07-20T16:15:45;2.65;;;1.10;;
18596;SDS011;9428;50.950;6.912;2023-07-20T16:18:32;1.73;;;1.23;;
18596;SDS011;9428;50.950;6.912;2023-07-20T16:21:19;4.35;;;1.42;;
18596;SDS011;9428;50.950;6.912;2023-07-20T16:24:08;1.73;;;1.13;;
18596;SDS011;9428;50.950;6.912;2023-07-20T16:26:56;1.70;;;1.30;;
18596;SDS011;9428;50.950;6.912;2023-07-20T16:29:43;2.15;;;1.20;;
18596;SDS011;9428;50.950;6.912;2023-07-20T16:32:30;1.75;;;1.10;;
18596;SDS011;9428;50.950;6.912;2023-07-20T16:35:17;4.43;;;1.30;;
18596;SDS011;9428;50.950;6.912;2023-07-20T16:38:06;1.77;;;1.13;;
18596;SDS011;9428;50.950;6.912;2023-07-20T16:40:56;1.75;;;1.10;;
18596;SDS011;9428;50.950;6.912;2023-07-20T16:43:43;2.38;;;1.35;;
18596;SDS011;9428;50.950;6.912;2023-07-20T16:46:31;2.78;;;1.10;;
18596;SDS011;9428;50.950;6.912;2023-07-20T16:49:19;3.28;;;1.42;;
18596;SDS011;9428;50.950;6.912;2023-07-20T16:52:06;2.20;;;1.30;;
18596;SDS011;9428;50.950;6.912;2023-07-20T16:54:54;3.22;;;1.40;;
18596;SDS011;9428;50.950;6.912;2023-07-20T16:57:43;2.42;;;1.40;;
18596;SDS011;9428;50.950;6.912;2023-07-20T17:00:30;1.20;;;1.10;;
18596;SDS011;9428;50.950;6.912;2023-07-20T17:03:17;1.50;;;1.33;;
18596;SDS011;9428;50.950;6.912;2023-07-20T17:06:04;1.65;;;1.10;;
18596;SDS011;9428;50.950;6.912;2023-07-20T17:08:52;5.72;;;1.30;;